Dessau, Texas
Current Conditions -  °F | °C
As of 6:55 PM on Friday 24 Oct 2014 (Local Time) from KEDC Reporting Station
Clear Clear  
Wind Chill: 77°   Ceiling: Unl
Heat Index: 79°   Visibility: 9mi
Dew Point: 59°   Wind: 5mph
Humidity: 54%   Direction: 130°SE
Pressure: 30.09"   Gusts: NA
Location:  30.3795°N, 97.676°W
Report Text: KEDC 242355Z AUTO 13004KT 9SM CLR 25/15 A3009 RMK AO2
Loading
Personal Weather Stations






























Interactive Weather Map
Tropical Storm Tracking
New forecast layout! Learn more

10-Day Weather Forecast

Advertisements
Track Severe Weather on mobile